createdAt,value
2023-04-27T00:00:11.863Z,7.19
2023-04-27T00:05:16.622Z,7.25
2023-04-27T00:10:19.958Z,7.03
2023-04-27T00:15:24.115Z,6.79
2023-04-27T00:20:27.802Z,6.73
2023-04-27T00:25:31.036Z,6.50
2023-04-27T00:30:34.066Z,6.20
2023-04-27T00:35:37.205Z,6.15
2023-04-27T00:40:41.067Z,6.05
2023-04-27T00:45:45.946Z,5.75
2023-04-27T00:50:49.583Z,5.59
2023-04-27T00:55:52.655Z,5.50
2023-04-27T01:00:57.210Z,5.44
2023-04-27T01:06:01.986Z,5.47
2023-04-27T01:11:05.810Z,5.43
2023-04-27T01:16:09.402Z,5.32
2023-04-27T01:21:16.141Z,5.30
2023-04-27T01:26:20.142Z,4.98
2023-04-27T01:31:25.062Z,4.93
2023-04-27T01:36:32.633Z,4.85
2023-04-27T01:41:39.407Z,4.84
2023-04-27T01:46:43.368Z,4.77
2023-04-27T01:51:47.243Z,4.65
2023-04-27T01:56:53.469Z,4.63
2023-04-27T02:01:56.992Z,4.54
2023-04-27T02:07:01.112Z,4.51
2023-04-27T02:12:06.454Z,4.41
2023-04-27T02:17:09.893Z,4.32
2023-04-27T02:22:14.027Z,4.31
2023-04-27T02:27:17.234Z,4.25
2023-04-27T02:32:21.311Z,4.16
2023-04-27T02:37:24.466Z,4.11
2023-04-27T02:42:27.596Z,4.11
2023-04-27T02:47:31.793Z,4.07
2023-04-27T02:52:36.006Z,4.14
2023-04-27T02:57:39.519Z,4.14
2023-04-27T03:02:43.833Z,4.08
2023-04-27T03:07:47.350Z,4.15
2023-04-27T03:12:51.226Z,4.30
2023-04-27T03:17:55.169Z,4.28
2023-04-27T03:22:59.144Z,4.28
2023-04-27T03:28:02.752Z,4.14
2023-04-27T03:33:06.100Z,4.18
2023-04-27T03:38:09.530Z,4.13
2023-04-27T03:43:12.573Z,4.14
2023-04-27T03:48:16.849Z,4.14
2023-04-27T03:53:21.063Z,4.05
2023-04-27T03:58:25.724Z,4.04
2023-04-27T04:03:50.998Z,4.08
2023-04-27T04:08:55.096Z,4.12
2023-04-27T04:13:59.224Z,4.00
2023-04-27T04:19:03.194Z,4.01
2023-04-27T04:24:08.030Z,4.11
2023-04-27T04:29:11.595Z,4.29
2023-04-27T04:34:16.118Z,4.41
2023-04-27T04:39:23.298Z,4.52
2023-04-27T04:44:27.072Z,4.70
2023-04-27T04:49:30.714Z,5.06
2023-04-27T04:54:34.724Z,5.35
2023-04-27T04:59:39.006Z,5.51
2023-04-27T05:04:42.980Z,5.79
2023-04-27T05:09:46.724Z,6.25
2023-04-27T05:14:51.997Z,6.59
2023-04-27T05:19:55.616Z,7.28
2023-04-27T05:24:59.452Z,7.91
2023-04-27T05:30:02.856Z,8.01
2023-04-27T05:35:06.313Z,8.32
2023-04-27T05:40:10.048Z,8.82
2023-04-27T05:45:13.944Z,9.40
2023-04-27T05:50:17.581Z,9.95
2023-04-27T05:55:21.942Z,10.38
2023-04-27T06:00:25.706Z,10.51
2023-04-27T06:05:29.149Z,10.83
2023-04-27T06:10:34.600Z,11.01
2023-04-27T06:15:38.027Z,11.14
2023-04-27T06:20:43.197Z,12.95
2023-04-27T06:25:46.958Z,15.75
2023-04-27T06:30:50.606Z,15.86
2023-04-27T06:35:54.349Z,16.77
2023-04-27T06:40:58.264Z,17.63
2023-04-27T06:46:02.029Z,17.26
2023-04-27T06:51:05.968Z,18.46
2023-04-27T06:56:12.105Z,18.02
2023-04-27T07:01:16.260Z,18.86
2023-04-27T07:06:19.881Z,18.79
2023-04-27T07:11:23.976Z,18.95
2023-04-27T07:16:28.637Z,19.12
2023-04-27T07:21:32.087Z,19.37
2023-04-27T07:26:35.314Z,20.02
2023-04-27T07:31:38.554Z,19.72
2023-04-27T07:36:42.200Z,19.85
2023-04-27T07:41:45.660Z,20.00
2023-04-27T07:46:49.659Z,19.77
2023-04-27T07:51:53.155Z,20.11
2023-04-27T07:56:57.583Z,20.22
2023-04-27T08:02:17.704Z,20.19
2023-04-27T08:07:23.414Z,20.60
2023-04-27T08:12:26.874Z,20.12
2023-04-27T08:17:31.375Z,19.73
2023-04-27T08:22:35.111Z,19.11
2023-04-27T08:27:41.311Z,20.25
2023-04-27T08:32:45.357Z,20.68
2023-04-27T08:37:48.891Z,19.93
2023-04-27T08:42:57.069Z,20.78
2023-04-27T08:48:01.801Z,20.84
2023-04-27T08:53:05.974Z,20.77
2023-04-27T08:58:09.928Z,20.33
2023-04-27T09:03:23.708Z,20.34
2023-04-27T09:08:26.912Z,21.84
2023-04-27T09:13:37.002Z,21.05
2023-04-27T09:18:43.915Z,20.27
2023-04-27T09:23:47.834Z,21.40
2023-04-27T09:28:53.148Z,20.84
2023-04-27T09:33:57.019Z,21.50
2023-04-27T09:39:05.531Z,21.27
2023-04-27T09:44:09.012Z,21.25
2023-04-27T09:49:14.397Z,22.14
2023-04-27T09:54:18.387Z,21.88
2023-04-27T09:59:46.200Z,21.06
2023-04-27T10:04:49.162Z,22.13
2023-04-27T10:09:52.848Z,21.73
2023-04-27T10:14:58.864Z,21.99
2023-04-27T10:20:04.900Z,21.53
2023-04-27T10:25:17.625Z,20.89
2023-04-27T10:30:23.024Z,22.50
2023-04-27T10:35:41.093Z,21.94
2023-04-27T10:41:01.825Z,21.72
2023-04-27T10:46:09.234Z,22.19
2023-04-27T10:51:16.815Z,20.40
2023-04-27T10:56:20.944Z,20.41
2023-04-27T11:01:28.242Z,22.01
2023-04-27T11:06:35.170Z,20.93
2023-04-27T11:11:38.209Z,21.52
2023-04-27T11:16:47.493Z,19.98
2023-04-27T11:21:51.101Z,20.12
2023-04-27T11:26:55.141Z,20.78
2023-04-27T11:31:58.247Z,21.51
2023-04-27T11:37:17.333Z,22.42
2023-04-27T11:42:25.179Z,22.79
2023-04-27T11:47:31.398Z,22.79
2023-04-27T11:52:40.252Z,23.40
2023-04-27T11:57:43.976Z,20.78
2023-04-27T12:02:47.085Z,21.40
2023-04-27T12:07:50.793Z,21.93
2023-04-27T12:12:55.211Z,22.01
2023-04-27T12:17:58.765Z,22.01
2023-04-27T12:23:02.577Z,21.79
2023-04-27T12:28:06.690Z,22.73
2023-04-27T12:33:11.447Z,22.83
2023-04-27T12:38:14.805Z,22.33
2023-04-27T12:43:18.545Z,22.27
2023-04-27T12:48:28.812Z,22.52
2023-04-27T12:53:33.116Z,22.39
2023-04-27T12:58:36.779Z,22.34
2023-04-27T13:03:40.391Z,22.48
2023-04-27T13:08:44.174Z,22.80
2023-04-27T13:13:48.150Z,23.41
2023-04-27T13:18:52.566Z,22.92
2023-04-27T13:23:59.581Z,22.90
2023-04-27T13:29:05.049Z,22.82
2023-04-27T13:34:08.997Z,23.53
2023-04-27T13:39:13.269Z,24.18
2023-04-27T13:44:17.322Z,23.19
2023-04-27T13:49:21.536Z,23.29
2023-04-27T13:54:25.496Z,23.89
2023-04-27T13:59:29.361Z,23.35
2023-04-27T14:04:32.572Z,22.71
2023-04-27T14:09:36.644Z,22.55
2023-04-27T14:14:40.706Z,22.48
2023-04-27T14:19:44.101Z,22.78
2023-04-27T14:24:47.559Z,22.53
2023-04-27T14:29:51.707Z,22.34
2023-04-27T14:34:55.235Z,22.27
2023-04-27T14:39:58.972Z,22.24
2023-04-27T14:45:02.484Z,21.79
2023-04-27T14:50:07.178Z,21.64
2023-04-27T14:55:12.184Z,20.99
2023-04-27T15:00:16.062Z,20.77
2023-04-27T15:05:19.384Z,20.79
2023-04-27T15:10:23.070Z,20.85
2023-04-27T15:15:26.510Z,21.27
2023-04-27T15:20:29.968Z,20.78
2023-04-27T15:25:33.613Z,20.55
2023-04-27T15:30:37.112Z,20.41
2023-04-27T15:35:41.030Z,20.22
2023-04-27T15:40:44.386Z,19.35
2023-04-27T15:45:48.267Z,19.52
2023-04-27T15:50:52.586Z,19.29
2023-04-27T15:55:56.499Z,18.92
2023-04-27T16:01:00.853Z,18.33
2023-04-27T16:06:04.480Z,18.09
2023-04-27T16:11:08.168Z,17.52
2023-04-27T16:16:11.833Z,16.75
2023-04-27T16:21:15.434Z,16.40
2023-04-27T16:26:19.303Z,16.05
2023-04-27T16:31:23.307Z,15.90
2023-04-27T16:36:28.130Z,15.34
2023-04-27T16:41:31.565Z,15.14
2023-04-27T16:46:35.157Z,14.91
2023-04-27T16:51:39.246Z,14.66
2023-04-27T16:56:43.621Z,14.21
2023-04-27T17:01:47.332Z,13.82
2023-04-27T17:06:51.349Z,13.41
2023-04-27T17:11:55.845Z,13.07
2023-04-27T17:17:03.941Z,12.75
2023-04-27T17:22:10.960Z,12.51
2023-04-27T17:27:15.180Z,12.26
2023-04-27T17:32:18.986Z,12.11
2023-04-27T17:37:23.131Z,11.90
2023-04-27T17:42:26.804Z,11.77
2023-04-27T17:47:31.204Z,11.62
2023-04-27T17:52:34.701Z,11.40
2023-04-27T17:57:38.683Z,11.30
2023-04-27T18:02:42.024Z,11.30
2023-04-27T18:07:47.088Z,11.33
2023-04-27T18:12:50.553Z,11.42
2023-04-27T18:17:53.731Z,11.42
2023-04-27T18:22:57.482Z,11.34
2023-04-27T18:28:01.562Z,11.31
2023-04-27T18:33:05.876Z,11.34
2023-04-27T18:38:09.872Z,11.34
2023-04-27T18:43:13.294Z,11.43
2023-04-27T18:48:16.244Z,11.34
2023-04-27T18:53:19.780Z,11.35
2023-04-27T18:58:22.756Z,11.39
2023-04-27T19:03:25.812Z,11.41
2023-04-27T19:08:29.243Z,11.31
2023-04-27T19:13:32.302Z,11.21
2023-04-27T19:18:36.503Z,11.06
2023-04-27T19:23:40.168Z,10.80
2023-04-27T19:28:44.308Z,10.56
2023-04-27T19:38:58.336Z,10.40
2023-04-27T19:44:02.353Z,10.52
2023-04-27T19:49:06.787Z,10.51
2023-04-27T19:54:10.296Z,10.40
2023-04-27T19:59:13.325Z,10.19
2023-04-27T20:04:18.711Z,10.09
2023-04-27T20:09:21.948Z,9.87
2023-04-27T20:14:25.332Z,9.86
2023-04-27T20:19:28.723Z,9.79
2023-04-27T20:24:31.689Z,9.72
2023-04-27T20:29:34.854Z,9.78
2023-04-27T20:34:37.814Z,9.47
2023-04-27T20:39:41.714Z,9.33
2023-04-27T20:44:48.703Z,9.22
2023-04-27T20:49:51.659Z,9.11
2023-04-27T20:54:54.506Z,9.00
2023-04-27T20:59:57.348Z,8.94
2023-04-27T21:05:00.548Z,8.81
2023-04-27T21:10:06.491Z,8.70
2023-04-27T21:15:09.850Z,8.56
2023-04-27T21:20:13.110Z,8.48
2023-04-27T21:25:16.600Z,8.41
2023-04-27T21:30:19.809Z,8.32
2023-04-27T21:35:23.182Z,8.36
2023-04-27T21:40:26.356Z,8.20
2023-04-27T21:45:29.363Z,8.10
2023-04-27T21:50:32.374Z,8.03
2023-04-27T21:55:35.271Z,7.86
2023-04-27T22:00:39.052Z,7.75
2023-04-27T22:05:42.155Z,7.71
2023-04-27T22:10:45.555Z,7.57
2023-04-27T22:15:49.054Z,7.44
2023-04-27T22:20:52.147Z,7.41
2023-04-27T22:25:55.220Z,7.34
2023-04-27T22:30:58.273Z,7.20
2023-04-27T22:36:01.472Z,7.18
2023-04-27T22:41:04.656Z,7.18
2023-04-27T22:46:07.581Z,7.12
2023-04-27T22:51:11.064Z,7.21
2023-04-27T22:56:14.196Z,7.29
2023-04-27T23:01:17.434Z,7.26
2023-04-27T23:06:20.594Z,7.18
2023-04-27T23:11:24.430Z,7.35
2023-04-27T23:16:27.363Z,7.62
2023-04-27T23:21:30.282Z,7.53
2023-04-27T23:26:33.297Z,7.37
2023-04-27T23:31:36.314Z,7.23
2023-04-27T23:36:39.826Z,7.09
2023-04-27T23:41:42.653Z,6.85
2023-04-27T23:46:45.565Z,6.78
2023-04-27T23:51:50.360Z,6.73
2023-04-27T23:56:53.479Z,6.65
